Terminal Aerodrome Forecast
Issued by NWS

Home | Current Version | Previous Version | Text Only | Print | Product List | Glossary Off
Versions: 1 2 3 4 5 6 7 8 9 10 11 12 13 14 15 16 17 18 19

532
FTUS43 KFGF 162340
TAFBJI
TAF
KBJI 162340Z 1700/1724 00000KT P6SM SCT250
     FM170500 00000KT 5SM BR FEW140
     FM171600 VRB03KT P6SM FEW150
     FM172100 20007KT P6SM SCT200=

USA.gov is the U.S. government's official web portal to all federal, state and local government web resources and services.